sensor_id;sensor_type;location;lat;lon;timestamp;pressure;altitude;pressure_sealevel;temperature;humidity
75759;BME280;64371;47.566;19.086;2023-04-10T00:02:27;101199.50;;;2.99;90.08
75759;BME280;64371;47.566;19.086;2023-04-10T00:05:30;101196.84;;;3.05;89.55
75759;BME280;64371;47.566;19.086;2023-04-10T00:08:32;101192.72;;;3.29;88.60
75759;BME280;64371;47.566;19.086;2023-04-10T00:11:35;101185.09;;;3.34;87.77
75759;BME280;64371;47.566;19.086;2023-04-10T00:14:37;101188.97;;;3.50;86.94
75759;BME280;64371;47.566;19.086;2023-04-10T00:17:39;101177.56;;;3.51;86.35
75759;BME280;64371;47.566;19.086;2023-04-10T00:20:42;101172.75;;;3.48;86.23
75759;BME280;64371;47.566;19.086;2023-04-10T00:23:44;101185.53;;;3.56;86.09
75759;BME280;64371;47.566;19.086;2023-04-10T00:26:47;101185.69;;;3.61;86.24
75759;BME280;64371;47.566;19.086;2023-04-10T00:29:49;101179.69;;;3.60;86.07
75759;BME280;64371;47.566;19.086;2023-04-10T00:32:51;101178.47;;;3.56;86.10
75759;BME280;64371;47.566;19.086;2023-04-10T00:35:54;101181.06;;;3.63;86.20
75759;BME280;64371;47.566;19.086;2023-04-10T00:38:56;101168.53;;;3.71;85.90
75759;BME280;64371;47.566;19.086;2023-04-10T00:41:58;101169.50;;;3.77;85.40
75759;BME280;64371;47.566;19.086;2023-04-10T00:45:03;101168.06;;;3.81;85.62
75759;BME280;64371;47.566;19.086;2023-04-10T00:48:05;101171.78;;;3.67;85.51
75759;BME280;64371;47.566;19.086;2023-04-10T00:51:08;101170.56;;;3.69;85.59
75759;BME280;64371;47.566;19.086;2023-04-10T00:54:10;101167.25;;;3.80;85.92
75759;BME280;64371;47.566;19.086;2023-04-10T00:57:13;101161.25;;;3.80;85.71
75759;BME280;64371;47.566;19.086;2023-04-10T01:00:16;101172.22;;;3.88;85.48
75759;BME280;64371;47.566;19.086;2023-04-10T01:03:19;101166.09;;;4.01;84.69
75759;BME280;64371;47.566;19.086;2023-04-10T01:10:31;101155.50;;;3.96;85.12
75759;BME280;64371;47.566;19.086;2023-04-10T01:13:55;101171.28;;;4.01;85.07
75759;BME280;64371;47.566;19.086;2023-04-10T01:17:07;101158.81;;;4.03;85.15
75759;BME280;64371;47.566;19.086;2023-04-10T01:20:16;101166.19;;;3.88;85.63
75759;BME280;64371;47.566;19.086;2023-04-10T01:23:53;101166.00;;;3.89;86.24
75759;BME280;64371;47.566;19.086;2023-04-10T01:27:09;101161.09;;;3.75;87.09
75759;BME280;64371;47.566;19.086;2023-04-10T01:30:17;101155.25;;;3.79;87.34
75759;BME280;64371;47.566;19.086;2023-04-10T01:33:25;101158.38;;;3.88;87.00
75759;BME280;64371;47.566;19.086;2023-04-10T01:36:39;101139.13;;;3.64;87.15
75759;BME280;64371;47.566;19.086;2023-04-10T01:39:50;101151.41;;;3.57;87.55
75759;BME280;64371;47.566;19.086;2023-04-10T01:42:55;101145.88;;;3.47;88.41
75759;BME280;64371;47.566;19.086;2023-04-10T01:46:08;101147.38;;;3.37;89.08
75759;BME280;64371;47.566;19.086;2023-04-10T01:49:13;101151.00;;;3.35;89.40
75759;BME280;64371;47.566;19.086;2023-04-10T01:52:17;101153.47;;;3.24;89.93
75759;BME280;64371;47.566;19.086;2023-04-10T01:55:25;101149.50;;;3.15;90.02
75759;BME280;64371;47.566;19.086;2023-04-10T01:58:39;101160.19;;;3.07;89.50
75759;BME280;64371;47.566;19.086;2023-04-10T02:01:42;101151.44;;;2.95;90.14
75759;BME280;64371;47.566;19.086;2023-04-10T02:04:44;101153.03;;;2.96;90.64
75759;BME280;64371;47.566;19.086;2023-04-10T02:11:16;101153.03;;;3.02;91.12
75759;BME280;64371;47.566;19.086;2023-04-10T02:14:29;101149.47;;;2.90;91.08
75759;BME280;64371;47.566;19.086;2023-04-10T02:17:33;101143.84;;;2.93;90.70
75759;BME280;64371;47.566;19.086;2023-04-10T02:20:37;101155.06;;;2.94;91.05
75759;BME280;64371;47.566;19.086;2023-04-10T02:23:39;101154.47;;;2.92;90.90
75759;BME280;64371;47.566;19.086;2023-04-10T02:26:46;101155.63;;;2.96;91.37
75759;BME280;64371;47.566;19.086;2023-04-10T02:29:49;101148.56;;;3.09;91.55
75759;BME280;64371;47.566;19.086;2023-04-10T02:32:52;101139.56;;;3.05;91.95
75759;BME280;64371;47.566;19.086;2023-04-10T02:35:55;101144.84;;;3.23;91.37
75759;BME280;64371;47.566;19.086;2023-04-10T02:38:57;101142.19;;;3.30;90.73
75759;BME280;64371;47.566;19.086;2023-04-10T02:42:00;101141.78;;;3.33;90.10
75759;BME280;64371;47.566;19.086;2023-04-10T02:45:02;101138.44;;;3.26;89.68
75759;BME280;64371;47.566;19.086;2023-04-10T02:48:10;101137.34;;;3.09;90.34
75759;BME280;64371;47.566;19.086;2023-04-10T02:51:14;101126.00;;;2.97;90.25
75759;BME280;64371;47.566;19.086;2023-04-10T02:54:16;101122.88;;;2.82;90.64
75759;BME280;64371;47.566;19.086;2023-04-10T02:57:19;101125.75;;;2.74;91.60
75759;BME280;64371;47.566;19.086;2023-04-10T03:00:22;101133.91;;;2.77;91.22
75759;BME280;64371;47.566;19.086;2023-04-10T03:03:41;101128.53;;;2.72;92.01
75759;BME280;64371;47.566;19.086;2023-04-10T03:06:44;101121.34;;;2.67;91.77
75759;BME280;64371;47.566;19.086;2023-04-10T03:09:46;101125.41;;;2.57;91.65
75759;BME280;64371;47.566;19.086;2023-04-10T03:12:49;101122.41;;;2.53;92.20
75759;BME280;64371;47.566;19.086;2023-04-10T03:15:51;101125.28;;;2.39;91.81
75759;BME280;64371;47.566;19.086;2023-04-10T03:18:56;101126.09;;;2.33;91.68
75759;BME280;64371;47.566;19.086;2023-04-10T03:21:59;101131.91;;;2.28;91.59
75759;BME280;64371;47.566;19.086;2023-04-10T03:25:01;101126.19;;;2.13;91.60
75759;BME280;64371;47.566;19.086;2023-04-10T03:28:04;101134.75;;;2.20;91.88
75759;BME280;64371;47.566;19.086;2023-04-10T03:31:07;101136.75;;;2.18;92.18
75759;BME280;64371;47.566;19.086;2023-04-10T03:34:10;101133.56;;;2.10;92.87
75759;BME280;64371;47.566;19.086;2023-04-10T03:37:12;101127.78;;;2.08;92.70
75759;BME280;64371;47.566;19.086;2023-04-10T03:40:15;101128.19;;;2.05;92.99
75759;BME280;64371;47.566;19.086;2023-04-10T03:43:17;101130.97;;;2.10;92.29
75759;BME280;64371;47.566;19.086;2023-04-10T03:46:20;101132.56;;;2.17;93.05
75759;BME280;64371;47.566;19.086;2023-04-10T03:49:25;101137.34;;;2.20;92.89
75759;BME280;64371;47.566;19.086;2023-04-10T03:52:35;101136.19;;;2.03;93.19
75759;BME280;64371;47.566;19.086;2023-04-10T03:55:39;101142.19;;;1.97;92.83
75759;BME280;64371;47.566;19.086;2023-04-10T03:58:42;101136.19;;;1.96;93.19
75759;BME280;64371;47.566;19.086;2023-04-10T04:01:45;101144.97;;;2.09;93.44
75759;BME280;64371;47.566;19.086;2023-04-10T04:04:48;101146.19;;;2.13;93.38
75759;BME280;64371;47.566;19.086;2023-04-10T04:08:09;101153.56;;;2.09;93.50
75759;BME280;64371;47.566;19.086;2023-04-10T04:11:30;101147.22;;;1.98;92.96
75759;BME280;64371;47.566;19.086;2023-04-10T04:14:36;101161.63;;;2.01;93.46
75759;BME280;64371;47.566;19.086;2023-04-10T04:18:10;101162.41;;;1.95;92.94
75759;BME280;64371;47.566;19.086;2023-04-10T04:21:15;101155.97;;;2.04;93.55
75759;BME280;64371;47.566;19.086;2023-04-10T04:24:38;101150.59;;;1.92;93.42
75759;BME280;64371;47.566;19.086;2023-04-10T04:27:50;101151.59;;;2.05;93.50
75759;BME280;64371;47.566;19.086;2023-04-10T04:31:18;101156.19;;;2.09;93.38
75759;BME280;64371;47.566;19.086;2023-04-10T04:34:41;101157.19;;;2.15;93.02
75759;BME280;64371;47.566;19.086;2023-04-10T04:37:52;101152.34;;;2.25;92.96
75759;BME280;64371;47.566;19.086;2023-04-10T04:41:13;101161.34;;;2.29;92.50
75759;BME280;64371;47.566;19.086;2023-04-10T04:44:34;101173.53;;;2.35;92.38
75759;BME280;64371;47.566;19.086;2023-04-10T04:48:02;101170.72;;;2.36;92.42
75759;BME280;64371;47.566;19.086;2023-04-10T04:51:18;101174.91;;;2.44;92.45
75759;BME280;64371;47.566;19.086;2023-04-10T04:54:25;101171.91;;;2.47;92.16
75759;BME280;64371;47.566;19.086;2023-04-10T04:57:46;101180.22;;;2.62;91.90
75759;BME280;64371;47.566;19.086;2023-04-10T05:00:58;101178.63;;;2.67;91.26
75759;BME280;64371;47.566;19.086;2023-04-10T05:04:26;101181.34;;;2.86;91.18
75759;BME280;64371;47.566;19.086;2023-04-10T05:07:33;101185.25;;;3.01;90.56
75759;BME280;64371;47.566;19.086;2023-04-10T05:10:58;101180.63;;;3.03;90.78
75759;BME280;64371;47.566;19.086;2023-04-10T05:14:12;101183.00;;;3.11;89.84
75759;BME280;64371;47.566;19.086;2023-04-10T05:17:21;101191.59;;;3.18;89.15
75759;BME280;64371;47.566;19.086;2023-04-10T05:20:37;101198.28;;;3.39;89.32
75759;BME280;64371;47.566;19.086;2023-04-10T05:23:50;101202.59;;;3.52;88.63
75759;BME280;64371;47.566;19.086;2023-04-10T05:27:21;101198.28;;;3.64;87.59
75759;BME280;64371;47.566;19.086;2023-04-10T05:30:53;101195.91;;;3.62;87.86
75759;BME280;64371;47.566;19.086;2023-04-10T05:34:21;101194.94;;;3.81;86.90
75759;BME280;64371;47.566;19.086;2023-04-10T05:37:42;101198.13;;;3.83;86.65
75759;BME280;64371;47.566;19.086;2023-04-10T05:40:59;101200.16;;;4.24;86.09
75759;BME280;64371;47.566;19.086;2023-04-10T05:44:24;101192.31;;;4.79;84.25
75759;BME280;64371;47.566;19.086;2023-04-10T05:47:44;101191.25;;;5.16;81.86
75759;BME280;64371;47.566;19.086;2023-04-10T05:50:59;101187.28;;;5.25;80.62
75759;BME280;64371;47.566;19.086;2023-04-10T05:54:10;101188.97;;;5.72;79.68
75759;BME280;64371;47.566;19.086;2023-04-10T05:57:24;101198.44;;;6.08;77.88
75759;BME280;64371;47.566;19.086;2023-04-10T06:00:46;101196.47;;;6.50;74.95
75759;BME280;64371;47.566;19.086;2023-04-10T06:04:08;101193.81;;;6.61;74.48
75759;BME280;64371;47.566;19.086;2023-04-10T06:07:12;101195.66;;;6.61;74.34
75759;BME280;64371;47.566;19.086;2023-04-10T06:10:14;101196.03;;;7.38;72.23
75759;BME280;64371;47.566;19.086;2023-04-10T06:13:17;101198.19;;;7.90;70.53
75759;BME280;64371;47.566;19.086;2023-04-10T06:16:19;101202.41;;;7.58;70.01
75759;BME280;64371;47.566;19.086;2023-04-10T06:19:22;101210.03;;;7.43;70.76
75759;BME280;64371;47.566;19.086;2023-04-10T06:22:25;101210.59;;;7.45;71.00
75759;BME280;64371;47.566;19.086;2023-04-10T06:25:27;101209.22;;;8.09;68.72
75759;BME280;64371;47.566;19.086;2023-04-10T06:28:30;101205.78;;;8.63;67.21
75759;BME280;64371;47.566;19.086;2023-04-10T06:31:35;101209.91;;;9.03;65.34
75759;BME280;64371;47.566;19.086;2023-04-10T06:34:38;101200.53;;;9.12;64.77
75759;BME280;64371;47.566;19.086;2023-04-10T06:37:42;101196.13;;;9.44;64.33
75759;BME280;64371;47.566;19.086;2023-04-10T06:40:45;101202.31;;;10.38;61.79
75759;BME280;64371;47.566;19.086;2023-04-10T06:43:47;101195.97;;;9.92;61.98
75759;BME280;64371;47.566;19.086;2023-04-10T06:46:49;101197.84;;;9.65;62.72
75759;BME280;64371;47.566;19.086;2023-04-10T06:49:52;101194.78;;;10.15;61.78
75759;BME280;64371;47.566;19.086;2023-04-10T06:52:54;101179.84;;;11.08;59.00
75759;BME280;64371;47.566;19.086;2023-04-10T06:55:57;101199.06;;;10.88;58.44
75759;BME280;64371;47.566;19.086;2023-04-10T06:59:03;101192.03;;;11.14;58.35
75759;BME280;64371;47.566;19.086;2023-04-10T07:02:06;101187.75;;;11.03;58.45
75759;BME280;64371;47.566;19.086;2023-04-10T07:05:08;101185.69;;;12.01;55.98
75759;BME280;64371;47.566;19.086;2023-04-10T07:08:11;101186.50;;;11.51;57.15
75759;BME280;64371;47.566;19.086;2023-04-10T07:11:13;101192.78;;;12.20;54.98
75759;BME280;64371;47.566;19.086;2023-04-10T07:14:16;101188.72;;;13.07;51.91
75759;BME280;64371;47.566;19.086;2023-04-10T07:17:18;101192.00;;;12.84;52.55
75759;BME280;64371;47.566;19.086;2023-04-10T07:20:20;101175.06;;;13.28;50.98
75759;BME280;64371;47.566;19.086;2023-04-10T07:23:23;101188.91;;;13.15;51.25
75759;BME280;64371;47.566;19.086;2023-04-10T07:26:25;101186.81;;;13.17;51.72
75759;BME280;64371;47.566;19.086;2023-04-10T07:29:27;101172.25;;;14.06;49.74
75759;BME280;64371;47.566;19.086;2023-04-10T07:32:30;101161.44;;;14.69;46.80
75759;BME280;64371;47.566;19.086;2023-04-10T07:35:33;101169.47;;;14.63;46.66
75759;BME280;64371;47.566;19.086;2023-04-10T07:38:36;101168.97;;;15.17;44.52
75759;BME280;64371;47.566;19.086;2023-04-10T07:41:39;101176.03;;;15.08;44.78
75759;BME280;64371;47.566;19.086;2023-04-10T07:44:42;101174.22;;;14.67;44.30
75759;BME280;64371;47.566;19.086;2023-04-10T07:47:44;101163.97;;;15.16;43.89
75759;BME280;64371;47.566;19.086;2023-04-10T07:50:46;101155.69;;;15.82;41.95
75759;BME280;64371;47.566;19.086;2023-04-10T07:53:49;101147.81;;;15.12;42.21
75759;BME280;64371;47.566;19.086;2023-04-10T07:56:51;101154.22;;;15.44;41.88
75759;BME280;64371;47.566;19.086;2023-04-10T07:59:54;101158.19;;;16.19;40.44
75759;BME280;64371;47.566;19.086;2023-04-10T08:02:56;101149.31;;;16.10;39.14
75759;BME280;64371;47.566;19.086;2023-04-10T08:05:59;101152.38;;;16.17;38.86
75759;BME280;64371;47.566;19.086;2023-04-10T08:09:01;101160.63;;;16.70;38.93
75759;BME280;64371;47.566;19.086;2023-04-10T08:12:04;101158.66;;;17.42;36.94
75759;BME280;64371;47.566;19.086;2023-04-10T08:15:06;101148.03;;;16.08;38.61
75759;BME280;64371;47.566;19.086;2023-04-10T08:18:09;101152.28;;;15.49;39.57
75759;BME280;64371;47.566;19.086;2023-04-10T08:21:11;101147.22;;;15.66;40.19
75759;BME280;64371;47.566;19.086;2023-04-10T08:24:14;101158.03;;;16.79;38.50
75759;BME280;64371;47.566;19.086;2023-04-10T08:27:16;101155.22;;;16.97;36.96
75759;BME280;64371;47.566;19.086;2023-04-10T08:30:19;101145.34;;;16.76;36.44
75759;BME280;64371;47.566;19.086;2023-04-10T08:33:21;101147.72;;;17.44;35.91
75759;BME280;64371;47.566;19.086;2023-04-10T08:36:23;101137.69;;;18.19;34.18
75759;BME280;64371;47.566;19.086;2023-04-10T08:39:26;101136.88;;;18.49;32.72
75759;BME280;64371;47.566;19.086;2023-04-10T08:42:29;101121.13;;;17.52;33.85
75759;BME280;64371;47.566;19.086;2023-04-10T08:45:33;101126.44;;;17.30;33.65
75759;BME280;64371;47.566;19.086;2023-04-10T08:49:03;101137.75;;;18.36;32.64
75759;BME280;64371;47.566;19.086;2023-04-10T08:52:14;101125.94;;;18.29;31.63
75759;BME280;64371;47.566;19.086;2023-04-10T08:55:19;101122.06;;;17.56;32.94
75759;BME280;64371;47.566;19.086;2023-04-10T08:58:26;101128.41;;;17.16;33.32
75759;BME280;64371;47.566;19.086;2023-04-10T09:01:29;101134.38;;;18.05;31.77
75759;BME280;64371;47.566;19.086;2023-04-10T09:04:32;101126.31;;;18.36;32.42
75759;BME280;64371;47.566;19.086;2023-04-10T09:07:35;101115.66;;;17.57;32.88
75759;BME280;64371;47.566;19.086;2023-04-10T09:10:38;101113.13;;;17.08;32.25
75759;BME280;64371;47.566;19.086;2023-04-10T09:13:43;101119.13;;;17.58;30.48
75759;BME280;64371;47.566;19.086;2023-04-10T09:16:46;101105.75;;;17.88;31.86
75759;BME280;64371;47.566;19.086;2023-04-10T09:19:53;101108.44;;;18.62;30.07
75759;BME280;64371;47.566;19.086;2023-04-10T09:22:56;101102.09;;;17.76;28.71
75759;BME280;64371;47.566;19.086;2023-04-10T09:25:58;101078.66;;;17.34;30.30
75759;BME280;64371;47.566;19.086;2023-04-10T09:29:01;101102.66;;;16.89;33.06
75759;BME280;64371;47.566;19.086;2023-04-10T09:32:04;101103.69;;;15.89;34.29
75759;BME280;64371;47.566;19.086;2023-04-10T09:35:08;101103.34;;;16.45;33.97
75759;BME280;64371;47.566;19.086;2023-04-10T09:38:18;101097.78;;;16.69;33.67
75759;BME280;64371;47.566;19.086;2023-04-10T09:41:20;101090.41;;;16.88;33.41
75759;BME280;64371;47.566;19.086;2023-04-10T09:44:34;101074.41;;;18.03;31.98
75759;BME280;64371;47.566;19.086;2023-04-10T09:47:38;101089.66;;;19.31;30.24
75759;BME280;64371;47.566;19.086;2023-04-10T09:50:40;101097.47;;;17.99;31.44
75759;BME280;64371;47.566;19.086;2023-04-10T09:53:49;101080.81;;;17.93;32.51
75759;BME280;64371;47.566;19.086;2023-04-10T09:56:52;101082.03;;;17.48;32.76
75759;BME280;64371;47.566;19.086;2023-04-10T09:59:57;101066.50;;;16.39;33.75
75759;BME280;64371;47.566;19.086;2023-04-10T10:03:00;101074.97;;;15.64;34.99
75759;BME280;64371;47.566;19.086;2023-04-10T10:06:04;101071.00;;;15.62;35.14
75759;BME280;64371;47.566;19.086;2023-04-10T10:09:07;101073.69;;;15.62;35.96
75759;BME280;64371;47.566;19.086;2023-04-10T10:12:11;101070.81;;;15.85;35.51
75759;BME280;64371;47.566;19.086;2023-04-10T10:18:43;101070.00;;;15.58;35.57
75759;BME280;64371;47.566;19.086;2023-04-10T10:21:46;101058.78;;;15.47;36.08
75759;BME280;64371;47.566;19.086;2023-04-10T10:24:49;101060.38;;;15.16;37.18
75759;BME280;64371;47.566;19.086;2023-04-10T10:27:58;101061.31;;;14.74;38.18
75759;BME280;64371;47.566;19.086;2023-04-10T10:31:04;101055.69;;;14.94;37.76
75759;BME280;64371;47.566;19.086;2023-04-10T10:34:08;101050.59;;;14.98;37.74
75759;BME280;64371;47.566;19.086;2023-04-10T10:37:11;101057.13;;;15.19;36.54
75759;BME280;64371;47.566;19.086;2023-04-10T10:40:31;101051.75;;;14.92;37.40
75759;BME280;64371;47.566;19.086;2023-04-10T10:43:54;101055.78;;;14.89;37.95
75759;BME280;64371;47.566;19.086;2023-04-10T10:47:19;101055.25;;;15.19;38.28
75759;BME280;64371;47.566;19.086;2023-04-10T10:50:24;101055.31;;;14.50;38.48
75759;BME280;64371;47.566;19.086;2023-04-10T10:53:35;101052.34;;;14.51;40.02
75759;BME280;64371;47.566;19.086;2023-04-10T10:56:38;101049.00;;;14.65;39.91
75759;BME280;64371;47.566;19.086;2023-04-10T11:06:15;101063.09;;;14.79;40.63
75759;BME280;64371;47.566;19.086;2023-04-10T11:09:46;101059.53;;;14.32;42.05
75759;BME280;64371;47.566;19.086;2023-04-10T11:13:14;101046.59;;;14.26;42.35
75759;BME280;64371;47.566;19.086;2023-04-10T11:16:19;101059.94;;;13.97;43.58
75759;BME280;64371;47.566;19.086;2023-04-10T11:19:22;101057.88;;;13.70;43.62
75759;BME280;64371;47.566;19.086;2023-04-10T11:22:27;101054.53;;;14.07;42.65
75759;BME280;64371;47.566;19.086;2023-04-10T11:26:05;101048.34;;;14.54;42.94
75759;BME280;64371;47.566;19.086;2023-04-10T11:32:22;101050.69;;;14.37;41.73
75759;BME280;64371;47.566;19.086;2023-04-10T11:35:25;101042.63;;;14.05;42.77
75759;BME280;64371;47.566;19.086;2023-04-10T11:38:29;101051.25;;;13.91;43.94
75759;BME280;64371;47.566;19.086;2023-04-10T11:41:33;101052.72;;;14.03;43.48
75759;BME280;64371;47.566;19.086;2023-04-10T11:44:35;101036.69;;;14.13;43.31
75759;BME280;64371;47.566;19.086;2023-04-10T11:47:40;101041.16;;;14.54;42.49
75759;BME280;64371;47.566;19.086;2023-04-10T11:50:42;101022.16;;;14.29;43.74
75759;BME280;64371;47.566;19.086;2023-04-10T11:53:45;101047.75;;;14.76;46.42
75759;BME280;64371;47.566;19.086;2023-04-10T11:57:07;101049.34;;;14.58;44.61
75759;BME280;64371;47.566;19.086;2023-04-10T12:00:22;101040.06;;;14.18;44.37
75759;BME280;64371;47.566;19.086;2023-04-10T12:03:36;101026.19;;;14.45;45.27
75759;BME280;64371;47.566;19.086;2023-04-10T12:06:43;101051.00;;;14.35;47.66
75759;BME280;64371;47.566;19.086;2023-04-10T12:09:55;101031.72;;;14.06;48.23
75759;BME280;64371;47.566;19.086;2023-04-10T12:12:57;101036.94;;;13.45;49.13
75759;BME280;64371;47.566;19.086;2023-04-10T12:16:11;101029.50;;;13.47;50.63
75759;BME280;64371;47.566;19.086;2023-04-10T12:19:14;101027.97;;;13.88;49.68
75759;BME280;64371;47.566;19.086;2023-04-10T12:22:17;101015.69;;;14.16;47.98
75759;BME280;64371;47.566;19.086;2023-04-10T12:25:20;101009.41;;;14.31;46.79
75759;BME280;64371;47.566;19.086;2023-04-10T12:28:22;101005.41;;;14.10;45.56
75759;BME280;64371;47.566;19.086;2023-04-10T12:31:33;100997.47;;;14.10;46.76
75759;BME280;64371;47.566;19.086;2023-04-10T12:34:36;100983.56;;;14.18;46.19
75759;BME280;64371;47.566;19.086;2023-04-10T12:37:51;100987.94;;;14.27;45.50
75759;BME280;64371;47.566;19.086;2023-04-10T12:40:59;100982.59;;;14.83;43.74
75759;BME280;64371;47.566;19.086;2023-04-10T12:44:12;100967.06;;;14.90;43.45
75759;BME280;64371;47.566;19.086;2023-04-10T12:47:15;100972.63;;;14.75;43.96
75759;BME280;64371;47.566;19.086;2023-04-10T12:50:18;100947.28;;;14.69;43.07
75759;BME280;64371;47.566;19.086;2023-04-10T12:53:22;100958.00;;;14.78;43.79
75759;BME280;64371;47.566;19.086;2023-04-10T12:56:25;100959.25;;;15.26;42.21
75759;BME280;64371;47.566;19.086;2023-04-10T12:59:28;100942.44;;;15.58;41.46
75759;BME280;64371;47.566;19.086;2023-04-10T13:02:31;100940.31;;;15.60;40.68
75759;BME280;64371;47.566;19.086;2023-04-10T13:05:34;100910.81;;;14.75;42.29
75759;BME280;64371;47.566;19.086;2023-04-10T13:08:36;100933.09;;;15.06;42.71
75759;BME280;64371;47.566;19.086;2023-04-10T13:11:39;100909.63;;;14.81;42.25
75759;BME280;64371;47.566;19.086;2023-04-10T13:14:42;100921.22;;;14.71;42.57
75759;BME280;64371;47.566;19.086;2023-04-10T13:17:44;100910.97;;;14.97;42.97
75759;BME280;64371;47.566;19.086;2023-04-10T13:20:47;100909.94;;;14.93;42.68
75759;BME280;64371;47.566;19.086;2023-04-10T13:23:49;100897.50;;;14.61;42.74
75759;BME280;64371;47.566;19.086;2023-04-10T13:26:52;100906.75;;;14.63;43.05
75759;BME280;64371;47.566;19.086;2023-04-10T13:29:54;100896.97;;;14.91;43.09
75759;BME280;64371;47.566;19.086;2023-04-10T13:32:56;100889.03;;;14.91;42.62
75759;BME280;64371;47.566;19.086;2023-04-10T13:35:59;100890.75;;;14.69;43.78
75759;BME280;64371;47.566;19.086;2023-04-10T13:39:01;100879.16;;;14.78;42.60
75759;BME280;64371;47.566;19.086;2023-04-10T13:42:04;100879.78;;;15.16;42.55
75759;BME280;64371;47.566;19.086;2023-04-10T13:45:06;100873.84;;;15.19;42.23
75759;BME280;64371;47.566;19.086;2023-04-10T13:48:09;100866.47;;;15.29;41.65
75759;BME280;64371;47.566;19.086;2023-04-10T13:51:11;100851.03;;;15.04;41.19
75759;BME280;64371;47.566;19.086;2023-04-10T13:54:14;100851.75;;;15.10;41.77
75759;BME280;64371;47.566;19.086;2023-04-10T13:57:18;100848.78;;;15.11;41.56
75759;BME280;64371;47.566;19.086;2023-04-10T14:00:20;100851.16;;;15.13;41.12
75759;BME280;64371;47.566;19.086;2023-04-10T14:03:23;100839.31;;;15.19;40.76
75759;BME280;64371;47.566;19.086;2023-04-10T14:06:25;100835.41;;;15.30;40.48
75759;BME280;64371;47.566;19.086;2023-04-10T14:09:28;100833.91;;;15.51;40.71
75759;BME280;64371;47.566;19.086;2023-04-10T14:12:30;100824.59;;;15.62;40.73
75759;BME280;64371;47.566;19.086;2023-04-10T14:15:33;100815.97;;;15.57;40.02
75759;BME280;64371;47.566;19.086;2023-04-10T14:18:35;100811.72;;;15.69;40.96
75759;BME280;64371;47.566;19.086;2023-04-10T14:21:38;100811.06;;;15.50;40.16
75759;BME280;64371;47.566;19.086;2023-04-10T14:24:42;100802.81;;;15.74;40.03
75759;BME280;64371;47.566;19.086;2023-04-10T14:27:44;100786.00;;;15.65;39.97
75759;BME280;64371;47.566;19.086;2023-04-10T14:30:48;100790.63;;;15.73;39.93
75759;BME280;64371;47.566;19.086;2023-04-10T14:33:50;100789.09;;;15.80;39.28
75759;BME280;64371;47.566;19.086;2023-04-10T14:36:53;100790.06;;;15.84;39.24
75759;BME280;64371;47.566;19.086;2023-04-10T14:39:57;100778.72;;;15.70;39.56
75759;BME280;64371;47.566;19.086;2023-04-10T14:42:59;100777.91;;;15.70;39.25
75759;BME280;64371;47.566;19.086;2023-04-10T14:46:01;100778.22;;;15.46;39.42
75759;BME280;64371;47.566;19.086;2023-04-10T14:49:03;100774.25;;;15.57;39.52
75759;BME280;64371;47.566;19.086;2023-04-10T14:52:06;100760.47;;;15.55;39.39
75759;BME280;64371;47.566;19.086;2023-04-10T14:55:10;100764.91;;;15.60;40.05
75759;BME280;64371;47.566;19.086;2023-04-10T14:58:12;100745.53;;;15.46;39.82
75759;BME280;64371;47.566;19.086;2023-04-10T15:01:15;100754.44;;;15.63;39.41
75759;BME280;64371;47.566;19.086;2023-04-10T15:04:18;100745.78;;;15.58;38.72
75759;BME280;64371;47.566;19.086;2023-04-10T15:07:21;100753.16;;;15.61;39.64
75759;BME280;64371;47.566;19.086;2023-04-10T15:10:25;100741.09;;;15.55;38.54
75759;BME280;64371;47.566;19.086;2023-04-10T15:13:29;100733.53;;;15.48;39.36
75759;BME280;64371;47.566;19.086;2023-04-10T15:16:32;100739.34;;;15.37;38.93
75759;BME280;64371;47.566;19.086;2023-04-10T15:19:34;100726.53;;;15.39;38.77
75759;BME280;64371;47.566;19.086;2023-04-10T15:22:36;100721.66;;;15.32;39.40
75759;BME280;64371;47.566;19.086;2023-04-10T15:25:39;100725.63;;;15.43;39.67
75759;BME280;64371;47.566;19.086;2023-04-10T15:28:41;100724.03;;;15.56;39.73
75759;BME280;64371;47.566;19.086;2023-04-10T15:31:44;100722.59;;;15.50;39.39
75759;BME280;64371;47.566;19.086;2023-04-10T15:34:46;100715.22;;;15.47;40.57
75759;BME280;64371;47.566;19.086;2023-04-10T15:37:48;100704.66;;;15.33;40.36
75759;BME280;64371;47.566;19.086;2023-04-10T15:40:51;100710.00;;;15.42;39.67
75759;BME280;64371;47.566;19.086;2023-04-10T15:43:53;100722.34;;;15.38;39.85
75759;BME280;64371;47.566;19.086;2023-04-10T15:46:56;100718.56;;;15.39;39.72
75759;BME280;64371;47.566;19.086;2023-04-10T15:49:58;100712.34;;;15.43;39.95
75759;BME280;64371;47.566;19.086;2023-04-10T15:53:02;100695.75;;;15.38;40.51
75759;BME280;64371;47.566;19.086;2023-04-10T15:56:05;100705.75;;;15.54;39.95
75759;BME280;64371;47.566;19.086;2023-04-10T15:59:08;100700.56;;;15.71;39.62
75759;BME280;64371;47.566;19.086;2023-04-10T16:02:10;100701.06;;;15.82;38.61
75759;BME280;64371;47.566;19.086;2023-04-10T16:05:12;100710.72;;;16.00;38.74
75759;BME280;64371;47.566;19.086;2023-04-10T16:08:15;100704.47;;;16.05;38.20
75759;BME280;64371;47.566;19.086;2023-04-10T16:11:17;100691.44;;;15.94;38.43
75759;BME280;64371;47.566;19.086;2023-04-10T16:14:20;100692.97;;;15.87;38.54
75759;BME280;64371;47.566;19.086;2023-04-10T16:17:23;100685.53;;;15.67;39.63
75759;BME280;64371;47.566;19.086;2023-04-10T16:20:26;100689.56;;;15.64;38.65
75759;BME280;64371;47.566;19.086;2023-04-10T16:23:28;100684.84;;;15.61;39.34
75759;BME280;64371;47.566;19.086;2023-04-10T16:26:30;100684.84;;;15.61;39.39